createdAt,value
2022-09-20T00:01:38.844Z,100
2022-09-20T00:11:39.618Z,100
2022-09-20T00:21:39.859Z,100
2022-09-20T00:31:40.646Z,100
2022-09-20T00:41:40.974Z,100
2022-09-20T00:51:41.487Z,100
2022-09-20T01:01:42.314Z,100
2022-09-20T01:11:42.854Z,100
2022-09-20T01:21:43.045Z,100
2022-09-20T01:31:43.514Z,100
2022-09-20T01:41:44.472Z,100
2022-09-20T01:51:45.247Z,100
2022-09-20T02:01:46.332Z,100
2022-09-20T02:11:47.122Z,100
2022-09-20T02:21:47.526Z,100
2022-09-20T02:41:49.382Z,100
2022-09-20T03:11:51.835Z,100
2022-09-20T03:21:52.365Z,100
2022-09-20T03:31:53.214Z,100
2022-09-20T03:51:54.305Z,100
2022-09-20T04:01:55.037Z,100
2022-09-20T04:11:55.725Z,100
2022-09-20T04:21:56.326Z,100
2022-09-20T04:31:56.956Z,100
2022-09-20T04:41:57.252Z,100
2022-09-20T04:51:58.311Z,100
2022-09-20T05:11:59.294Z,100
2022-09-20T05:21:59.802Z,100
2022-09-20T05:31:59.977Z,100
2022-09-20T05:42:00.198Z,100
2022-09-20T05:52:00.838Z,100
2022-09-20T06:02:01.750Z,100
2022-09-20T06:12:02.006Z,100
2022-09-20T06:22:03.811Z,100
2022-09-20T06:32:03.134Z,100
2022-09-20T06:42:03.417Z,100
2022-09-20T06:52:04.450Z,100
2022-09-20T07:02:05.362Z,100
2022-09-20T08:55:07.422Z,100
2022-09-20T09:05:06.141Z,98
2022-09-20T09:05:28.045Z,98
2022-09-20T09:15:17.477Z,94
2022-09-20T09:45:13.181Z,88
2022-09-20T09:55:13.757Z,86
2022-09-20T10:05:14.372Z,85
2022-09-20T10:15:15.379Z,84
2022-09-20T10:25:15.480Z,82
2022-09-20T10:35:15.738Z,79
2022-09-20T10:45:29.809Z,81
2022-09-20T10:55:16.469Z,82
2022-09-20T11:05:17.034Z,83
2022-09-20T11:15:17.644Z,82
2022-09-20T11:25:21.038Z,80
2022-09-20T11:35:19.113Z,76
2022-09-20T11:45:19.295Z,75
2022-09-20T11:55:20.265Z,75
2022-09-20T12:05:21.071Z,76
2022-09-20T12:15:21.682Z,76
2022-09-20T12:45:24.827Z,79
2022-09-20T12:55:24.869Z,78
2022-09-20T13:15:25.465Z,78
2022-09-20T13:25:25.787Z,78
2022-09-20T13:35:26.430Z,78
2022-09-20T13:45:28.827Z,79
2022-09-20T13:55:27.487Z,80
2022-09-20T14:25:29.507Z,79
2022-09-20T14:35:30.182Z,78
2022-09-20T14:45:30.822Z,77
2022-09-20T14:55:35.024Z,74
2022-09-20T15:05:31.657Z,75
2022-09-20T15:15:32.395Z,78
2022-09-20T15:25:32.493Z,81
2022-09-20T15:35:33.250Z,82
2022-09-20T15:45:34.201Z,82
2022-09-20T15:55:35.045Z,83
2022-09-20T16:05:35.920Z,82
2022-09-20T16:15:36.864Z,81
2022-09-20T16:25:37.376Z,81
2022-09-20T16:55:38.442Z,83
2022-09-20T17:05:38.986Z,84
2022-09-20T17:15:39.702Z,86
2022-09-20T17:25:40.056Z,86
2022-09-20T17:45:41.156Z,90
2022-09-20T17:55:41.283Z,91
2022-09-20T18:05:41.692Z,92
2022-09-20T18:25:42.765Z,94
2022-09-20T18:35:43.375Z,95
2022-09-20T18:45:43.498Z,96
2022-09-20T18:55:43.842Z,97
2022-09-20T19:05:44.270Z,98
2022-09-20T19:15:44.800Z,99
2022-09-20T19:25:45.124Z,100
2022-09-20T19:45:45.548Z,100
2022-09-20T19:55:46.579Z,100
2022-09-20T20:05:47.265Z,100
2022-09-20T20:25:49.051Z,100
2022-09-20T20:35:49.548Z,100
2022-09-20T21:05:51.968Z,100
2022-09-20T21:25:52.951Z,100
2022-09-20T21:45:54.096Z,100
2022-09-20T22:05:55.217Z,100
2022-09-20T22:15:56.066Z,100
2022-09-20T22:25:56.833Z,100
2022-09-20T22:35:57.833Z,100
2022-09-20T23:15:59.840Z,100
2022-09-20T23:25:59.955Z,100
2022-09-20T23:36:00.844Z,100
